Terminal Aerodrome Forecast
Issued by NWS

Home | Current Version | Previous Version | Text Only | Print | Product List | Glossary On
Versions: 1 2 3 4 5 6 7 8 9 10 11 12
929
FTUS42 TJSJ 112320
TAFJBQ
TAF
TJBQ 112320Z 1200/1224 09007KT P6SM SCT035
     FM120600 12002KT P6SM FEW025
     FM121500 06008KT P6SM FEW030
     FM122200 36005KT P6SM SCT030
      AMD NOT SKED 1202/1211=

USA.gov is the U.S. government's official web portal to all federal, state and local government web resources and services.